sensor_id;sensor_type;location;lat;lon;timestamp;pressure;altitude;pressure_sealevel;temperature
47484;BMP280;54076;50.322;18.650;2023-04-28T00:02:52;98288.80;;;-0.03
47484;BMP280;54076;50.322;18.650;2023-04-28T00:07:54;98289.65;;;0.11
47484;BMP280;54076;50.322;18.650;2023-04-28T00:12:55;98288.86;;;0.30
47484;BMP280;54076;50.322;18.650;2023-04-28T00:17:56;98289.50;;;0.41
47484;BMP280;54076;50.322;18.650;2023-04-28T00:22:57;98285.74;;;0.37
47484;BMP280;54076;50.322;18.650;2023-04-28T00:27:58;98280.20;;;0.33
47484;BMP280;54076;50.322;18.650;2023-04-28T00:32:59;98282.39;;;0.19
47484;BMP280;54076;50.322;18.650;2023-04-28T00:38:00;98287.79;;;0.25
47484;BMP280;54076;50.322;18.650;2023-04-28T00:43:01;98289.24;;;0.19
47484;BMP280;54076;50.322;18.650;2023-04-28T00:48:02;98283.05;;;0.33
47484;BMP280;54076;50.322;18.650;2023-04-28T00:53:03;98281.15;;;0.43
47484;BMP280;54076;50.322;18.650;2023-04-28T00:58:05;98277.75;;;0.49
47484;BMP280;54076;50.322;18.650;2023-04-28T01:03:07;98275.40;;;0.37
47484;BMP280;54076;50.322;18.650;2023-04-28T01:08:08;98277.79;;;0.37
47484;BMP280;54076;50.322;18.650;2023-04-28T01:13:09;98280.29;;;0.37
47484;BMP280;54076;50.322;18.650;2023-04-28T01:18:10;98285.83;;;0.31
47484;BMP280;54076;50.322;18.650;2023-04-28T01:23:15;98282.90;;;0.28
47484;BMP280;54076;50.322;18.650;2023-04-28T01:28:16;98283.13;;;0.33
47484;BMP280;54076;50.322;18.650;2023-04-28T01:33:17;98279.30;;;0.26
47484;BMP280;54076;50.322;18.650;2023-04-28T01:38:18;98277.39;;;0.17
47484;BMP280;54076;50.322;18.650;2023-04-28T01:43:19;98281.48;;;0.22
47484;BMP280;54076;50.322;18.650;2023-04-28T01:48:20;98281.12;;;0.28
47484;BMP280;54076;50.322;18.650;2023-04-28T01:53:21;98282.41;;;0.44
47484;BMP280;54076;50.322;18.650;2023-04-28T01:58:23;98279.79;;;0.56
47484;BMP280;54076;50.322;18.650;2023-04-28T02:03:24;98279.17;;;0.58
47484;BMP280;54076;50.322;18.650;2023-04-28T02:08:25;98272.64;;;0.54
47484;BMP280;54076;50.322;18.650;2023-04-28T02:13:26;98273.12;;;0.84
47484;BMP280;54076;50.322;18.650;2023-04-28T02:18:27;98276.34;;;0.80
47484;BMP280;54076;50.322;18.650;2023-04-28T02:23:28;98265.65;;;0.65
47484;BMP280;54076;50.322;18.650;2023-04-28T02:28:29;98264.10;;;0.58
47484;BMP280;54076;50.322;18.650;2023-04-28T02:33:31;98256.56;;;0.58
47484;BMP280;54076;50.322;18.650;2023-04-28T02:38:32;98249.20;;;0.44
47484;BMP280;54076;50.322;18.650;2023-04-28T02:43:34;98247.52;;;0.45
47484;BMP280;54076;50.322;18.650;2023-04-28T02:48:36;98250.69;;;0.54
47484;BMP280;54076;50.322;18.650;2023-04-28T02:53:37;98253.79;;;0.14
47484;BMP280;54076;50.322;18.650;2023-04-28T02:58:38;98248.35;;;-0.05
47484;BMP280;54076;50.322;18.650;2023-04-28T03:03:39;98244.44;;;-0.01
47484;BMP280;54076;50.322;18.650;2023-04-28T03:08:40;98247.36;;;-0.27
47484;BMP280;54076;50.322;18.650;2023-04-28T03:13:41;98243.50;;;-0.34
47484;BMP280;54076;50.322;18.650;2023-04-28T03:18:42;98247.81;;;-0.44
47484;BMP280;54076;50.322;18.650;2023-04-28T03:23:43;98245.21;;;-0.77
47484;BMP280;54076;50.322;18.650;2023-04-28T03:28:44;98250.20;;;-0.81
47484;BMP280;54076;50.322;18.650;2023-04-28T03:33:45;98251.73;;;-0.92
47484;BMP280;54076;50.322;18.650;2023-04-28T03:38:47;98249.27;;;-0.94
47484;BMP280;54076;50.322;18.650;2023-04-28T03:43:47;98243.33;;;-0.72
47484;BMP280;54076;50.322;18.650;2023-04-28T03:48:48;98246.27;;;-0.82
47484;BMP280;54076;50.322;18.650;2023-04-28T03:53:50;98246.32;;;-0.77
47484;BMP280;54076;50.322;18.650;2023-04-28T03:58:51;98242.98;;;-0.73
47484;BMP280;54076;50.322;18.650;2023-04-28T04:03:52;98240.17;;;-0.61
47484;BMP280;54076;50.322;18.650;2023-04-28T04:08:53;98247.46;;;-0.42
47484;BMP280;54076;50.322;18.650;2023-04-28T04:13:54;98255.34;;;-0.34
47484;BMP280;54076;50.322;18.650;2023-04-28T04:18:55;98263.93;;;-0.24
47484;BMP280;54076;50.322;18.650;2023-04-28T04:23:56;98268.00;;;-0.04
47484;BMP280;54076;50.322;18.650;2023-04-28T04:28:58;98263.55;;;0.02
47484;BMP280;54076;50.322;18.650;2023-04-28T04:33:59;98261.93;;;0.23
47484;BMP280;54076;50.322;18.650;2023-04-28T04:39:00;98265.27;;;0.31
47484;BMP280;54076;50.322;18.650;2023-04-28T04:44:01;98265.08;;;0.44
47484;BMP280;54076;50.322;18.650;2023-04-28T04:49:02;98271.83;;;0.59
47484;BMP280;54076;50.322;18.650;2023-04-28T04:54:03;98277.86;;;0.71
47484;BMP280;54076;50.322;18.650;2023-04-28T04:59:04;98275.77;;;0.74
47484;BMP280;54076;50.322;18.650;2023-04-28T05:04:05;98277.85;;;0.95
47484;BMP280;54076;50.322;18.650;2023-04-28T05:09:06;98276.45;;;1.02
47484;BMP280;54076;50.322;18.650;2023-04-28T05:14:07;98274.06;;;1.08
47484;BMP280;54076;50.322;18.650;2023-04-28T05:19:08;98274.05;;;1.14
47484;BMP280;54076;50.322;18.650;2023-04-28T05:24:09;98271.81;;;1.29
47484;BMP280;54076;50.322;18.650;2023-04-28T05:29:10;98270.19;;;1.44
47484;BMP280;54076;50.322;18.650;2023-04-28T05:34:11;98263.80;;;1.69
47484;BMP280;54076;50.322;18.650;2023-04-28T05:39:12;98264.03;;;1.85
47484;BMP280;54076;50.322;18.650;2023-04-28T05:44:16;98270.54;;;2.05
47484;BMP280;54076;50.322;18.650;2023-04-28T05:49:17;98271.67;;;2.25
47484;BMP280;54076;50.322;18.650;2023-04-28T05:54:18;98274.41;;;2.45
47484;BMP280;54076;50.322;18.650;2023-04-28T05:59:19;98264.90;;;2.64
47484;BMP280;54076;50.322;18.650;2023-04-28T06:04:20;98268.08;;;2.55
47484;BMP280;54076;50.322;18.650;2023-04-28T06:09:21;98273.59;;;2.69
47484;BMP280;54076;50.322;18.650;2023-04-28T06:14:22;98272.99;;;2.75
47484;BMP280;54076;50.322;18.650;2023-04-28T06:19:23;98279.42;;;3.00
47484;BMP280;54076;50.322;18.650;2023-04-28T06:24:24;98273.36;;;3.25
47484;BMP280;54076;50.322;18.650;2023-04-28T06:29:25;98267.64;;;3.37
47484;BMP280;54076;50.322;18.650;2023-04-28T06:34:27;98260.68;;;3.26
47484;BMP280;54076;50.322;18.650;2023-04-28T06:39:28;98260.80;;;3.43
47484;BMP280;54076;50.322;18.650;2023-04-28T06:44:29;98255.95;;;3.76
47484;BMP280;54076;50.322;18.650;2023-04-28T06:49:30;98257.46;;;3.93
47484;BMP280;54076;50.322;18.650;2023-04-28T06:54:31;98253.73;;;4.18
47484;BMP280;54076;50.322;18.650;2023-04-28T06:59:33;98251.77;;;4.89
47484;BMP280;54076;50.322;18.650;2023-04-28T07:04:35;98244.63;;;5.76
47484;BMP280;54076;50.322;18.650;2023-04-28T07:09:36;98240.94;;;6.11
47484;BMP280;54076;50.322;18.650;2023-04-28T07:14:37;98235.33;;;5.54
47484;BMP280;54076;50.322;18.650;2023-04-28T07:19:38;98228.80;;;5.57
47484;BMP280;54076;50.322;18.650;2023-04-28T07:24:39;98227.85;;;5.61
47484;BMP280;54076;50.322;18.650;2023-04-28T07:29:40;98225.07;;;5.83
47484;BMP280;54076;50.322;18.650;2023-04-28T07:34:41;98226.23;;;5.97
47484;BMP280;54076;50.322;18.650;2023-04-28T07:39:42;98223.73;;;6.20
47484;BMP280;54076;50.322;18.650;2023-04-28T07:44:43;98227.81;;;7.08
47484;BMP280;54076;50.322;18.650;2023-04-28T07:49:44;98218.14;;;6.98
47484;BMP280;54076;50.322;18.650;2023-04-28T07:54:45;98212.73;;;6.95
47484;BMP280;54076;50.322;18.650;2023-04-28T07:59:46;98211.11;;;6.90
47484;BMP280;54076;50.322;18.650;2023-04-28T08:04:47;98208.84;;;7.00
47484;BMP280;54076;50.322;18.650;2023-04-28T08:09:48;98207.82;;;7.24
47484;BMP280;54076;50.322;18.650;2023-04-28T08:14:49;98202.89;;;7.36
47484;BMP280;54076;50.322;18.650;2023-04-28T08:19:51;98196.55;;;7.52
47484;BMP280;54076;50.322;18.650;2023-04-28T08:24:51;98197.52;;;7.81
47484;BMP280;54076;50.322;18.650;2023-04-28T08:29:53;98192.23;;;7.89
47484;BMP280;54076;50.322;18.650;2023-04-28T08:34:54;98187.37;;;8.03
47484;BMP280;54076;50.322;18.650;2023-04-28T08:39:55;98180.89;;;7.94
47484;BMP280;54076;50.322;18.650;2023-04-28T08:45:03;98173.95;;;8.10
47484;BMP280;54076;50.322;18.650;2023-04-28T08:50:07;98174.40;;;8.18
47484;BMP280;54076;50.322;18.650;2023-04-28T08:55:10;98172.52;;;7.88
47484;BMP280;54076;50.322;18.650;2023-04-28T09:00:12;98168.30;;;8.35
47484;BMP280;54076;50.322;18.650;2023-04-28T09:05:13;98165.99;;;8.62
47484;BMP280;54076;50.322;18.650;2023-04-28T09:15:35;98153.15;;;8.78
47484;BMP280;54076;50.322;18.650;2023-04-28T09:20:36;98155.96;;;9.18
47484;BMP280;54076;50.322;18.650;2023-04-28T09:25:37;98148.98;;;9.10
47484;BMP280;54076;50.322;18.650;2023-04-28T09:30:39;98153.52;;;9.16
47484;BMP280;54076;50.322;18.650;2023-04-28T09:35:42;98143.02;;;9.38
47484;BMP280;54076;50.322;18.650;2023-04-28T09:41:01;98137.59;;;9.57
47484;BMP280;54076;50.322;18.650;2023-04-28T09:46:04;98133.67;;;9.74
47484;BMP280;54076;50.322;18.650;2023-04-28T09:51:06;98128.30;;;10.18
47484;BMP280;54076;50.322;18.650;2023-04-28T09:56:08;98121.66;;;10.09
47484;BMP280;54076;50.322;18.650;2023-04-28T10:01:10;98112.98;;;9.95
47484;BMP280;54076;50.322;18.650;2023-04-28T10:06:12;98113.54;;;10.86
47484;BMP280;54076;50.322;18.650;2023-04-28T10:11:15;98109.27;;;11.11
47484;BMP280;54076;50.322;18.650;2023-04-28T10:16:16;98100.34;;;11.30
47484;BMP280;54076;50.322;18.650;2023-04-28T10:21:20;98102.28;;;12.03
47484;BMP280;54076;50.322;18.650;2023-04-28T10:26:32;98095.93;;;12.44
47484;BMP280;54076;50.322;18.650;2023-04-28T10:31:36;98093.38;;;13.07
47484;BMP280;54076;50.322;18.650;2023-04-28T10:41:48;98091.17;;;12.56
47484;BMP280;54076;50.322;18.650;2023-04-28T10:47:06;98080.73;;;13.83
47484;BMP280;54076;50.322;18.650;2023-04-28T10:57:38;98049.64;;;12.49
47484;BMP280;54076;50.322;18.650;2023-04-28T11:02:39;98065.56;;;14.21
47484;BMP280;54076;50.322;18.650;2023-04-28T11:13:27;98050.24;;;15.32
47484;BMP280;54076;50.322;18.650;2023-04-28T11:18:57;98042.61;;;15.56
47484;BMP280;54076;50.322;18.650;2023-04-28T11:23:59;98042.94;;;14.94
47484;BMP280;54076;50.322;18.650;2023-04-28T11:29:00;98038.37;;;15.07
47484;BMP280;54076;50.322;18.650;2023-04-28T11:34:10;98020.75;;;16.01
47484;BMP280;54076;50.322;18.650;2023-04-28T11:39:25;98034.13;;;16.48
47484;BMP280;54076;50.322;18.650;2023-04-28T11:44:30;98026.84;;;15.52
47484;BMP280;54076;50.322;18.650;2023-04-28T11:49:43;98020.56;;;14.48
47484;BMP280;54076;50.322;18.650;2023-04-28T11:54:44;98011.74;;;15.23
47484;BMP280;54076;50.322;18.650;2023-04-28T11:59:45;98016.35;;;15.92
47484;BMP280;54076;50.322;18.650;2023-04-28T12:04:47;98016.21;;;16.59
47484;BMP280;54076;50.322;18.650;2023-04-28T12:10:12;98015.71;;;16.48
47484;BMP280;54076;50.322;18.650;2023-04-28T12:15:15;98005.70;;;16.29
47484;BMP280;54076;50.322;18.650;2023-04-28T12:20:38;97995.91;;;17.05
47484;BMP280;54076;50.322;18.650;2023-04-28T12:25:43;97978.70;;;17.04
47484;BMP280;54076;50.322;18.650;2023-04-28T12:30:44;97975.70;;;16.59
47484;BMP280;54076;50.322;18.650;2023-04-28T12:35:45;97967.59;;;15.39
47484;BMP280;54076;50.322;18.650;2023-04-28T12:40:49;97967.20;;;17.34
47484;BMP280;54076;50.322;18.650;2023-04-28T12:45:51;97961.55;;;17.72
47484;BMP280;54076;50.322;18.650;2023-04-28T12:50:53;97954.58;;;16.54
47484;BMP280;54076;50.322;18.650;2023-04-28T12:55:54;97949.09;;;16.97
47484;BMP280;54076;50.322;18.650;2023-04-28T13:00:55;97943.89;;;17.20
47484;BMP280;54076;50.322;18.650;2023-04-28T13:05:56;97917.05;;;15.67
47484;BMP280;54076;50.322;18.650;2023-04-28T13:10:57;97912.02;;;14.64
47484;BMP280;54076;50.322;18.650;2023-04-28T13:15:58;97913.95;;;15.34
47484;BMP280;54076;50.322;18.650;2023-04-28T13:20:59;97909.20;;;15.00
47484;BMP280;54076;50.322;18.650;2023-04-28T13:26:00;97893.29;;;15.64
47484;BMP280;54076;50.322;18.650;2023-04-28T13:31:01;97901.08;;;14.41
47484;BMP280;54076;50.322;18.650;2023-04-28T13:36:02;97896.76;;;15.15
47484;BMP280;54076;50.322;18.650;2023-04-28T13:41:03;97882.69;;;14.83
47484;BMP280;54076;50.322;18.650;2023-04-28T13:46:05;97870.36;;;14.70
47484;BMP280;54076;50.322;18.650;2023-04-28T13:51:08;97873.27;;;14.73
47484;BMP280;54076;50.322;18.650;2023-04-28T13:56:09;97864.90;;;14.81
47484;BMP280;54076;50.322;18.650;2023-04-28T14:01:10;97859.92;;;14.93
47484;BMP280;54076;50.322;18.650;2023-04-28T14:06:11;97859.95;;;14.35
47484;BMP280;54076;50.322;18.650;2023-04-28T14:11:12;97850.58;;;14.30
47484;BMP280;54076;50.322;18.650;2023-04-28T14:16:13;97846.09;;;14.24
47484;BMP280;54076;50.322;18.650;2023-04-28T14:21:14;97841.14;;;14.25
47484;BMP280;54076;50.322;18.650;2023-04-28T14:26:16;97837.58;;;13.97
47484;BMP280;54076;50.322;18.650;2023-04-28T14:31:17;97841.73;;;13.33
47484;BMP280;54076;50.322;18.650;2023-04-28T14:36:18;97834.66;;;13.35
47484;BMP280;54076;50.322;18.650;2023-04-28T14:41:19;97829.39;;;13.63
47484;BMP280;54076;50.322;18.650;2023-04-28T14:46:20;97828.83;;;13.68
47484;BMP280;54076;50.322;18.650;2023-04-28T14:51:23;97827.73;;;14.04
47484;BMP280;54076;50.322;18.650;2023-04-28T14:56:25;97822.80;;;14.03
47484;BMP280;54076;50.322;18.650;2023-04-28T15:01:26;97826.77;;;13.47
47484;BMP280;54076;50.322;18.650;2023-04-28T15:06:27;97817.02;;;13.63
47484;BMP280;54076;50.322;18.650;2023-04-28T15:11:28;97807.07;;;13.54
47484;BMP280;54076;50.322;18.650;2023-04-28T15:16:29;97807.63;;;13.51
47484;BMP280;54076;50.322;18.650;2023-04-28T15:21:31;97805.48;;;13.51
47484;BMP280;54076;50.322;18.650;2023-04-28T15:26:32;97803.38;;;13.48
47484;BMP280;54076;50.322;18.650;2023-04-28T15:31:33;97795.79;;;13.43
47484;BMP280;54076;50.322;18.650;2023-04-28T15:36:38;97792.35;;;13.61
47484;BMP280;54076;50.322;18.650;2023-04-28T15:41:39;97781.48;;;13.51
47484;BMP280;54076;50.322;18.650;2023-04-28T15:46:40;97779.23;;;13.17
47484;BMP280;54076;50.322;18.650;2023-04-28T15:51:41;97776.73;;;12.78
47484;BMP280;54076;50.322;18.650;2023-04-28T15:56:42;97774.96;;;12.94
47484;BMP280;54076;50.322;18.650;2023-04-28T16:01:43;97768.55;;;12.98
47484;BMP280;54076;50.322;18.650;2023-04-28T16:06:44;97770.42;;;12.74
47484;BMP280;54076;50.322;18.650;2023-04-28T16:11:45;97771.24;;;12.63
47484;BMP280;54076;50.322;18.650;2023-04-28T16:16:46;97768.53;;;12.70
47484;BMP280;54076;50.322;18.650;2023-04-28T16:21:47;97765.83;;;12.56
47484;BMP280;54076;50.322;18.650;2023-04-28T16:26:49;97767.23;;;12.50
47484;BMP280;54076;50.322;18.650;2023-04-28T16:31:50;97757.48;;;12.55
47484;BMP280;54076;50.322;18.650;2023-04-28T16:36:52;97759.63;;;12.26
47484;BMP280;54076;50.322;18.650;2023-04-28T16:41:53;97751.30;;;12.19
47484;BMP280;54076;50.322;18.650;2023-04-28T16:46:54;97747.40;;;11.82
47484;BMP280;54076;50.322;18.650;2023-04-28T16:51:58;97743.17;;;11.82
47484;BMP280;54076;50.322;18.650;2023-04-28T16:57:00;97740.49;;;11.79
47484;BMP280;54076;50.322;18.650;2023-04-28T17:02:04;97745.14;;;11.49
47484;BMP280;54076;50.322;18.650;2023-04-28T17:07:06;97752.14;;;11.67
47484;BMP280;54076;50.322;18.650;2023-04-28T17:12:07;97744.40;;;11.37
47484;BMP280;54076;50.322;18.650;2023-04-28T17:17:09;97746.80;;;11.11
47484;BMP280;54076;50.322;18.650;2023-04-28T17:22:10;97742.70;;;10.78
47484;BMP280;54076;50.322;18.650;2023-04-28T17:27:11;97744.28;;;10.66
47484;BMP280;54076;50.322;18.650;2023-04-28T17:32:14;97748.90;;;10.48
47484;BMP280;54076;50.322;18.650;2023-04-28T17:37:15;97750.48;;;10.34
47484;BMP280;54076;50.322;18.650;2023-04-28T17:42:16;97746.00;;;10.10
47484;BMP280;54076;50.322;18.650;2023-04-28T17:47:17;97748.42;;;10.06
47484;BMP280;54076;50.322;18.650;2023-04-28T17:52:18;97750.74;;;10.11
47484;BMP280;54076;50.322;18.650;2023-04-28T17:57:20;97751.86;;;10.47
47484;BMP280;54076;50.322;18.650;2023-04-28T18:02:21;97744.14;;;10.06
47484;BMP280;54076;50.322;18.650;2023-04-28T18:07:22;97745.79;;;9.73
47484;BMP280;54076;50.322;18.650;2023-04-28T18:12:23;97749.52;;;9.68
47484;BMP280;54076;50.322;18.650;2023-04-28T18:17:25;97749.09;;;9.48
47484;BMP280;54076;50.322;18.650;2023-04-28T18:22:26;97745.92;;;9.50
47484;BMP280;54076;50.322;18.650;2023-04-28T18:27:27;97750.38;;;9.42
47484;BMP280;54076;50.322;18.650;2023-04-28T18:32:28;97752.21;;;9.39
47484;BMP280;54076;50.322;18.650;2023-04-28T18:37:30;97753.90;;;9.23
47484;BMP280;54076;50.322;18.650;2023-04-28T18:42:31;97754.98;;;9.25
47484;BMP280;54076;50.322;18.650;2023-04-28T18:47:33;97757.63;;;9.44
47484;BMP280;54076;50.322;18.650;2023-04-28T18:52:34;97761.11;;;9.36
47484;BMP280;54076;50.322;18.650;2023-04-28T18:57:35;97760.02;;;9.25
47484;BMP280;54076;50.322;18.650;2023-04-28T19:02:36;97759.75;;;9.01
47484;BMP280;54076;50.322;18.650;2023-04-28T19:07:37;97765.31;;;9.11
47484;BMP280;54076;50.322;18.650;2023-04-28T19:12:38;97766.50;;;8.74
47484;BMP280;54076;50.322;18.650;2023-04-28T19:17:39;97764.56;;;8.48
47484;BMP280;54076;50.322;18.650;2023-04-28T19:22:40;97767.34;;;8.38
47484;BMP280;54076;50.322;18.650;2023-04-28T19:27:43;97764.41;;;8.44
47484;BMP280;54076;50.322;18.650;2023-04-28T19:32:44;97759.92;;;8.44
47484;BMP280;54076;50.322;18.650;2023-04-28T19:37:45;97757.75;;;8.47
47484;BMP280;54076;50.322;18.650;2023-04-28T19:42:46;97750.36;;;8.64
47484;BMP280;54076;50.322;18.650;2023-04-28T19:47:48;97748.98;;;8.69
47484;BMP280;54076;50.322;18.650;2023-04-28T19:52:49;97748.20;;;8.75
47484;BMP280;54076;50.322;18.650;2023-04-28T19:57:50;97746.17;;;8.72
47484;BMP280;54076;50.322;18.650;2023-04-28T20:02:53;97739.65;;;8.74
47484;BMP280;54076;50.322;18.650;2023-04-28T20:07:54;97736.63;;;8.68
47484;BMP280;54076;50.322;18.650;2023-04-28T20:12:56;97733.77;;;8.49
47484;BMP280;54076;50.322;18.650;2023-04-28T20:17:57;97731.09;;;8.24
47484;BMP280;54076;50.322;18.650;2023-04-28T20:22:58;97730.71;;;8.14
47484;BMP280;54076;50.322;18.650;2023-04-28T20:27:59;97732.73;;;8.07
47484;BMP280;54076;50.322;18.650;2023-04-28T20:33:00;97736.66;;;8.05
47484;BMP280;54076;50.322;18.650;2023-04-28T20:38:01;97731.62;;;7.89
47484;BMP280;54076;50.322;18.650;2023-04-28T20:43:02;97731.22;;;7.77
47484;BMP280;54076;50.322;18.650;2023-04-28T20:48:03;97734.71;;;7.70
47484;BMP280;54076;50.322;18.650;2023-04-28T20:53:04;97730.69;;;7.54
47484;BMP280;54076;50.322;18.650;2023-04-28T20:58:05;97730.48;;;7.65
47484;BMP280;54076;50.322;18.650;2023-04-28T21:03:07;97729.34;;;7.59
47484;BMP280;54076;50.322;18.650;2023-04-28T21:08:14;97728.65;;;7.39
47484;BMP280;54076;50.322;18.650;2023-04-28T21:13:16;97732.02;;;7.26
47484;BMP280;54076;50.322;18.650;2023-04-28T21:18:17;97731.15;;;7.23
47484;BMP280;54076;50.322;18.650;2023-04-28T21:23:18;97723.86;;;7.29
47484;BMP280;54076;50.322;18.650;2023-04-28T21:28:19;97723.90;;;7.28
47484;BMP280;54076;50.322;18.650;2023-04-28T21:33:20;97720.96;;;7.44
47484;BMP280;54076;50.322;18.650;2023-04-28T21:38:23;97718.98;;;7.37
47484;BMP280;54076;50.322;18.650;2023-04-28T21:43:24;97721.11;;;7.54
47484;BMP280;54076;50.322;18.650;2023-04-28T21:48:25;97723.27;;;7.60
47484;BMP280;54076;50.322;18.650;2023-04-28T21:53:26;97723.11;;;7.58
47484;BMP280;54076;50.322;18.650;2023-04-28T21:58:28;97719.79;;;7.64
47484;BMP280;54076;50.322;18.650;2023-04-28T22:03:29;97718.98;;;7.60
47484;BMP280;54076;50.322;18.650;2023-04-28T22:08:30;97715.45;;;7.63
47484;BMP280;54076;50.322;18.650;2023-04-28T22:13:31;97710.87;;;7.47
47484;BMP280;54076;50.322;18.650;2023-04-28T22:18:32;97711.17;;;7.47
47484;BMP280;54076;50.322;18.650;2023-04-28T22:23:33;97701.02;;;7.53
47484;BMP280;54076;50.322;18.650;2023-04-28T22:28:34;97697.80;;;7.49
47484;BMP280;54076;50.322;18.650;2023-04-28T22:33:37;97692.64;;;7.31
47484;BMP280;54076;50.322;18.650;2023-04-28T22:38:38;97690.60;;;7.28
47484;BMP280;54076;50.322;18.650;2023-04-28T22:43:39;97687.85;;;7.31
47484;BMP280;54076;50.322;18.650;2023-04-28T22:48:40;97685.52;;;7.42
47484;BMP280;54076;50.322;18.650;2023-04-28T22:53:41;97681.58;;;7.46
47484;BMP280;54076;50.322;18.650;2023-04-28T22:58:42;97677.29;;;7.37
47484;BMP280;54076;50.322;18.650;2023-04-28T23:03:44;97675.83;;;7.28
47484;BMP280;54076;50.322;18.650;2023-04-28T23:08:45;97670.20;;;7.30
47484;BMP280;54076;50.322;18.650;2023-04-28T23:13:46;97670.59;;;7.26
47484;BMP280;54076;50.322;18.650;2023-04-28T23:18:48;97669.00;;;7.29
47484;BMP280;54076;50.322;18.650;2023-04-28T23:23:49;97659.95;;;7.31
47484;BMP280;54076;50.322;18.650;2023-04-28T23:28:51;97658.67;;;7.28
47484;BMP280;54076;50.322;18.650;2023-04-28T23:33:52;97652.55;;;7.35
47484;BMP280;54076;50.322;18.650;2023-04-28T23:38:53;97646.81;;;7.39
47484;BMP280;54076;50.322;18.650;2023-04-28T23:43:55;97641.38;;;7.51
47484;BMP280;54076;50.322;18.650;2023-04-28T23:48:56;97641.64;;;7.67
47484;BMP280;54076;50.322;18.650;2023-04-28T23:53:57;97634.09;;;7.58
47484;BMP280;54076;50.322;18.650;2023-04-28T23:58:58;97630.37;;;7.63
